新千歳空港の過去48時間の天気

新千歳空港 (Sapporo/New Chitose)

現在時刻: 7/17 18:52 JST (7/17 09:52 UTC) 以下の時間は現地時間です。

過去48時間のMETAR気象情報
時間 風向 風速(m/s) 視程 気温(℃) 湿度(%) 気圧(hPa) 天気現象
17 18:30 北北東 3 10km以上 21 69 1009
17 18:00 3 10km以上 22 65 1009
17 17:30 3 10km以上 22 69 1009
17 17:00 北北東 3 10km以上 22 69 1008
17 16:30 北北東 4 10km以上 23 69 1008
17 16:00 4 10km以上 23 69 1008
17 15:30 4 10km以上 24 69 1008
17 15:00 4 10km以上 26 70 1008 弱いしゅう雨
17 14:30 2 10km以上 26 74 1008
17 14:00 不定 2 10km以上 27 66 1008
17 13:30 2 10km以上 26 61 1008
17 13:00 北北西 2 10km以上 26 61 1008
17 12:30 北北東 2 10km以上 26 61 1008
17 12:00 北北東 2 10km以上 26 61 1008
17 11:30 北東 2 10km以上 26 58 1008
17 11:00 2 10km以上 25 65 1008
17 10:30 北北東 3 10km以上 23 65 1009
17 10:00 3 10km以上 23 65 1009
17 09:30 3 10km以上 23 69 1009
17 09:00 北北西 4 10km以上 23 69 1009
17 08:30 北北西 4 10km以上 22 69 1009
17 08:00 北北西 4 10km以上 20 78 1009
17 07:30 3 10km以上 20 78 1010
17 07:00 4 10km以上 19 83 1009
17 06:30 4 10km以上 18 88 1010
17 06:00 4 10km以上 17 94 1010
17 05:30 4 10km以上 17 88 1010
17 05:00 北北西 3 10km以上 17 88 1010
17 04:30 3 10km以上 16 94 1010
17 04:00 3 10km以上 17 88 1010
17 03:30 3 10km以上 17 88 1010
17 03:00 3 10km以上 17 94 1010
17 02:30 3 10km以上 17 94 1010
17 02:00 3 10km以上 17 94 1010
17 01:30 2 10km以上 17 88 1010
17 01:00 3 10km以上 17 88 1010
17 00:30 2 10km以上 17 88 1010
17 00:00 北北西 3 10km以上 17 88 1009
16 23:30 3 10km以上 17 88 1010
16 23:00 3 10km以上 17 94 1010
16 22:30 3 10km以上 17 88 1010
16 22:00 3 10km以上 18 83 1010
16 21:30 2 10km以上 18 88 1010
16 21:00 3 10km以上 19 83 1010
16 20:30 4 10km以上 19 83 1010
16 20:00 5 10km以上 20 83 1010
16 19:30 3 10km以上 20 83 1009
16 19:00 北北西 4 10km以上 21 73 1009
16 18:30 北北西 5 10km以上 21 78 1009
16 18:00 北北西 5 10km以上 22 73 1009
16 17:30 北北西 6 10km以上 22 73 1009
16 17:00 北北西 7 10km以上 23 69 1009
16 16:30 北北西 7 10km以上 23 73 1009
16 16:00 北北西 7 10km以上 23 73 1009
16 15:30 北北西 7 10km以上 23 73 1009
16 15:00 6 10km以上 23 73 1009
16 14:30 5 10km以上 23 73 1009
16 14:00 6 10km以上 24 69 1009
16 13:30 7 10km以上 24 69 1009
16 13:00 6 10km以上 23 73 1009
16 12:30 7 10km以上 23 73 1009
16 12:00 6 10km以上 23 73 1009
16 11:30 5 10km以上 22 83 1009
16 11:00 5 10km以上 22 78 1009
16 10:30 4 10km以上 22 78 1009
16 10:00 3 10km以上 21 83 1009
16 09:46 4 10km以上 21 83 1009
16 09:30 4 10km以上 21 83 1009
16 09:00 4 10km以上 20 88 1009
16 08:30 4 10km以上 19 94 1009
16 08:00 5 10km以上 19 94 1009
16 07:30 5 8000m 19 94 1009
16 07:16 5 5000m 19 94 1009 もや
16 07:00 5 3200m 19 94 1009 もや
16 06:30 5 3000m 18 100 1008 弱い霧雨 もや
16 06:00 4 3000m 18 100 1008 弱い霧雨 もや
16 05:30 4 2400m 18 100 1008 弱い霧雨 もや
16 05:00 5 2000m 18 100 1008 弱い霧雨 もや
16 04:30 4 1000m 18 100 1008 弱い霧雨 もや
16 04:07 4 800m 18 100 1008 霧雨
16 04:00 4 1500m 18 100 1008 弱い霧雨 もや
16 03:30 北北西 2 1500m 18 100 1007 もや
16 03:10 北北西 4 1200m 18 100 1007 もや
16 03:00 北西 2 2000m 18 100 1007 もや
16 02:30 不定 1 2300m 18 100 1007 もや
16 02:00 南東 3 2000m 18 100 1006 もや
16 01:30 南東 3 2500m 18 94 1006 もや
16 01:00 南南東 4 2500m 18 100 1006 もや
16 00:30 南南東 4 3000m 18 100 1006 もや
16 00:00 南東 3 3000m 18 100 1006 もや
15 23:30 南南東 3 3000m 18 100 1006 もや
15 23:00 南南東 5 2300m 18 100 1006 もや
15 22:30 南東 3 2000m 18 100 1007 もや
15 22:00 南東 3 2300m 18 100 1007 もや
15 21:30 南南東 4 2500m 18 100 1007 もや
15 21:00 南東 3 2500m 18 100 1007 もや
15 20:30 南南東 4 2500m 19 94 1007 もや
15 20:00 南南東 5 2500m 19 94 1006 もや
15 19:43 5 3100m 19 94 1006 もや
15 19:30 5 4500m 19 94 1006 もや
15 19:15 5 6000m 19 94 1006
15 19:00 5 6000m 19 100 1006
RJCC 170930Z 02006KT 9999 FEW020 SCT040 BKN/// 21/15 Q1009
RJCC 170900Z 36006KT 310V030 9999 FEW020 SCT035 BKN040 22/15 Q1009 RMK 1CU020 3CU035 5CU040 A2980
RJCC 170830Z 36006KT 9999 FEW020 BKN035 22/16 Q1009 RMK 1CU020 7CU035 A2980
RJCC 170800Z 02006KT 9999 FEW020 SCT030 BKN040 22/16 Q1008 RMK 1CU020 3CU030 6CU040 A2979
RJCC 170730Z 02007KT 9999 FEW020 SCT030 BKN040 23/17 Q1008 RMK 1CU020 3CU030 6CU040 A2978
RJCC 170700Z 36007KT 330V030 9999 FEW020 SCT030 BKN040 23/17 Q1008 RMK 1CU020 3CU030 6CU040 A2978
RJCC 170630Z 35008KT 9999 FEW020 BKN030 24/18 Q1008 RMK 2CU020 6CU030 A2978
RJCC 170600Z 35007KT 9999 -SHRA FEW020 SCT025 BKN040 26/20 Q1008 RMK 1CU020 3CU025 6CU040 A2977
RJCC 170530Z 19004KT 110V250 9999 FEW025 SCT040 BKN/// 26/21 Q1008
RJCC 170500Z VRB03KT 9999 FEW025 SCT040 BKN/// 27/20 Q1008
RJCC 170430Z 01004KT 230V040 9999 FEW020 BKN/// 26/18 Q1008
RJCC 170400Z 34004KT 280V060 9999 FEW018 BKN/// 26/18 Q1008
RJCC 170330Z 02003KT 330V080 9999 FEW018 BKN/// 26/18 Q1008 RMK 1ST018 A2977
RJCC 170300Z 02003KT 330V090 9999 FEW018 BKN/// 26/18 Q1008
RJCC 170230Z 04003KT 320V100 9999 FEW018 BKN/// 26/17 Q1008
RJCC 170200Z 01004KT 260V050 9999 FEW025 BKN/// 25/18 Q1008
RJCC 170130Z 02006KT 9999 FEW025 BKN/// 23/16 Q1009 RMK 1CU025 A2980
RJCC 170100Z 36006KT 310V030 9999 FEW025 BKN/// 23/16 Q1009 RMK 1CU025 A2980
RJCC 170030Z 36005KT 9999 FEW025 BKN/// 23/17 Q1009
RJCC 170000Z 33008KT 300V010 9999 FEW025 BKN/// 23/17 Q1009 RMK 1CU025 A2982
RJCC 162330Z 33007KT 310V010 9999 FEW015 BKN/// 22/16 Q1009
RJCC 162300Z 34007KT 9999 FEW015 BKN/// 20/16 Q1009
RJCC 162230Z 36006KT 9999 FEW015 BKN/// 20/16 Q1010 RMK 1ST015 A2982
RJCC 162200Z 36007KT 9999 FEW010 BKN/// 19/16 Q1009
RJCC 162130Z 36008KT 9999 FEW010 SCT045 BKN/// 18/16 Q1010 RMK 1ST010 3CU045 A2983
RJCC 162100Z 36007KT 9999 FEW010 SCT045 BKN/// 17/16 Q1010 RMK 1ST010 3CU045 A2984
RJCC 162030Z 35007KT 9999 FEW010 SCT045 BKN/// 17/15 Q1010 RMK 1ST010 3CU045 A2984
RJCC 162000Z 34006KT 9999 FEW010 BKN/// 17/15 Q1010 RMK 1ST010 A2985
RJCC 161930Z 35006KT 9999 FEW010 BKN/// 16/15 Q1010
RJCC 161900Z 35005KT 9999 FEW010 BKN/// 17/15 Q1010 RMK 1ST010 A2984
RJCC 161830Z 35006KT 9999 FEW010 BKN015 17/15 Q1010 RMK 1ST010 7ST015 A2983
RJCC 161800Z 35005KT 9999 FEW010 BKN018 17/16 Q1010 RMK 1ST010 7ST018 A2982
RJCC 161730Z 36005KT 9999 FEW010 BKN020 17/16 Q1010 RMK 1ST010 7CU020 A2983
RJCC 161700Z 35005KT 9999 FEW010 BKN020 17/16 Q1010 RMK 1ST010 7CU020 A2983
RJCC 161630Z 35004KT 9999 FEW010 BKN020 17/15 Q1010 RMK 1ST010 7CU020 A2983
RJCC 161600Z 36005KT 9999 FEW010 BKN020 17/15 Q1010 RMK 1ST010 7CU020 A2982
RJCC 161530Z 36004KT 9999 FEW010 BKN025 BKN/// 17/15 Q1010 RMK 1ST010 5CU025 A2983
RJCC 161500Z 34005KT 9999 FEW010 BKN/// 17/15 Q1009 RMK 1ST010 A2982
RJCC 161430Z 36005KT 9999 FEW005 BKN025 BKN/// 17/15 Q1010
RJCC 161400Z 35005KT 9999 FEW005 SCT030 BKN/// 17/16 Q1010 RMK 1ST005 3SC030 A2983
RJCC 161330Z 35005KT 9999 FEW005 SCT030 BKN/// 17/15 Q1010
RJCC 161300Z 36006KT 9999 FEW005 SCT030 BKN/// 18/15 Q1010 RMK 1ST005 3SC030 A2983
RJCC 161230Z 36004KT 9999 FEW005 SCT070 BKN/// 18/16 Q1010
RJCC 161200Z 36006KT 9999 FEW005 SCT070 BKN/// 19/16 Q1010 RMK 1ST005 4AC070 A2983
RJCC 161130Z 36007KT 9999 FEW005 SCT070 BKN/// 19/16 Q1010
RJCC 161100Z 36009KT 9999 FEW005 SCT025 BKN/// 20/17 Q1010
RJCC 161030Z 01005KT 9999 FEW005 SCT025 BKN/// 20/17 Q1009
RJCC 161000Z 34008KT 320V020 9999 FEW005 SCT030 BKN/// 21/16 Q1009 RMK 1ST005 4SC030 A2982
RJCC 160930Z 34009KT 9999 FEW005 BKN/// 21/17 Q1009 RMK 1ST005 A2982
RJCC 160900Z 34010KT 9999 FEW005 SCT015 BKN/// 22/17 Q1009 RMK 1ST005 3ST015 A2981
RJCC 160830Z 34012KT 9999 FEW010 SCT018 BKN/// 22/17 Q1009
RJCC 160800Z 33013KT 9999 FEW015 SCT018 23/17 Q1009 RMK 1ST015 3ST018 A2980
RJCC 160730Z 34013KT 9999 FEW012 SCT015 23/18 Q1009 RMK 1ST012 3ST015 A2980
RJCC 160700Z 34013KT 9999 FEW012 SCT015 23/18 Q1009 RMK 1ST012 3ST015 A2980
RJCC 160630Z 34013KT 9999 FEW012 SCT015 23/18 Q1009 RMK 1ST012 3ST015 A2980
RJCC 160600Z 35011KT 9999 FEW012 SCT015 23/18 Q1009 RMK 1ST012 3ST015 A2980
RJCC 160530Z 01010KT 9999 FEW012 SCT015 23/18 Q1009 RMK 1ST012 4ST015 A2979
RJCC 160500Z 35011KT 330V040 9999 FEW012 SCT015 24/18 Q1009 RMK 1ST012 4ST015 A2979
RJCC 160430Z 35014KT 9999 FEW012 BKN015 24/18 Q1009 RMK 1ST012 6ST015 A2980
RJCC 160400Z 36011KT 9999 FEW012 BKN015 23/18 Q1009 RMK 1ST012 6ST015 A2980
RJCC 160330Z 36013KT 9999 FEW012 BKN015 BKN018 23/18 Q1009 RMK 1ST012 5ST015 7ST018 A2980
RJCC 160300Z 36012KT 9999 FEW009 BKN013 BKN018 23/18 Q1009 RMK 1ST009 5ST013 7ST018 A2980
RJCC 160230Z 35009KT 9999 FEW009 BKN013 22/19 Q1009 RMK 1ST009 7ST013 A2981
RJCC 160200Z 36009KT 9999 FEW009 BKN013 22/18 Q1009 RMK 1ST009 7ST013 A2981
RJCC 160130Z 36007KT 9999 FEW009 BKN013 22/18 Q1009 RMK 1ST009 7ST013 A2981
RJCC 160100Z 01005KT 330V050 9999 FEW009 BKN012 21/18 Q1009 RMK 2ST009 7ST012 A2981
RJCC 160046Z 36007KT 320V030 9999 FEW009 BKN012 21/18 Q1009 RMK 2ST009 7ST012 A2981
RJCC 160030Z 36007KT 9999 FEW006 BKN009 BKN012 21/18 Q1009 RMK 1ST006 5ST009 7ST012 A2980
RJCC 160000Z 35008KT 9999 FEW005 BKN009 BKN012 20/18 Q1009 RMK 1ST005 6ST009 7ST012 A2981
RJCC 152330Z 36008KT 9999 FEW004 BKN007 BKN012 19/18 Q1009 RMK 1ST004 6ST007 7ST012 A2980
RJCC 152300Z 36009KT 9999 FEW003 BKN006 BKN012 19/18 Q1009 RMK 1ST003 6ST006 7ST012 A2980
RJCC 152230Z 36010KT 8000 FEW002 BKN005 BKN012 19/18 Q1009 RMK 1ST002 6ST005 7ST012 A2980
RJCC 152216Z 36009KT 5000 BR FEW001 BKN005 BKN012 19/18 Q1009 RMK 1ST001 5ST005 7ST012 A2979
RJCC 152200Z 36009KT 3200 BR FEW001 SCT003 BKN005 19/18 Q1009 RMK 1ST001 3ST003 5ST005 A2979
RJCC 152130Z 01009KT 3000 -DZ BR FEW001 SCT003 BKN005 18/18 Q1008 RMK 1ST001 4ST003 6ST005 A2979
RJCC 152100Z 35008KT 3000 -DZ BR FEW001 SCT003 BKN005 18/18 Q1008 RMK 1ST001 3ST003 7ST005 A2979
RJCC 152030Z 36007KT 2400 -DZ BR FEW001 SCT003 BKN004 18/18 Q1008 RMK 2ST001 3ST003 7ST004 A2978
RJCC 152000Z 35010KT 2000 R19R/P2000N R19L/2000N -DZ BR FEW001 SCT002 BKN004 18/18 Q1008 RMK 2ST001 4ST002 7ST004 A2978
RJCC 151930Z 35007KT 1000 R19R/1800U R19L/1800U -DZ BR FEW001 BKN002 BKN003 18/18 Q1008
RJCC 151907Z 35007KT 0800 R19R/1800D R19L/1500VP2000D DZ FEW001 BKN002 18/18 Q1008 RMK 2ST001 7ST002 A2977
RJCC 151900Z 35007KT 1500 R19R/P2000N R19L/P2000N -DZ BR FEW001 BKN002 BKN003 18/18 Q1008 RMK 1ST001 5ST002 7ST003 A2977
RJCC 151830Z 33004KT 1500 R01L/P2000N R01R/P2000N BR FEW001 BKN002 18/18 Q1007 RMK 1ST001 7ST002 A2976
RJCC 151810Z 33007KT 1200 R01L/P2000N R01R/P2000N BR FEW001 BKN002 18/18 Q1007 RMK 1ST001 7ST002 A2975
RJCC 151800Z 31004KT 2000 BR FEW001 BKN003 18/18 Q1007 RMK 1ST001 7ST003 A2975
RJCC 151730Z VRB02KT 2300 BR FEW001 SCT002 BKN005 18/18 Q1007 RMK 1ST001 4ST002 7ST005 A2974
RJCC 151700Z 13006KT 2000 BR SCT001 BKN002 18/18 Q1006 RMK 3ST001 7ST002 A2973
RJCC 151630Z 14006KT 2500 BR FEW001 BKN002 18/17 Q1006 RMK 2ST001 6ST002 A2973
RJCC 151600Z 16008KT 2500 BR FEW001 BKN003 18/18 Q1006 RMK 1ST001 5ST003 A2973
RJCC 151530Z 15007KT 3000 BR FEW001 SCT003 18/18 Q1006 RMK 1ST001 4ST003 A2973
RJCC 151500Z 13006KT 3000 BR FEW001 SCT003 18/18 Q1006 RMK 1ST001 3ST003 A2973
RJCC 151430Z 15005KT 3000 BR FEW001 SCT003 18/18 Q1006 RMK 1ST001 3ST003 A2973
RJCC 151400Z 16010KT 2300 BR FEW001 BKN003 BKN005 18/18 Q1006 RMK 1ST001 5ST003 7ST005 A2973
RJCC 151330Z 14005KT 2000 BR FEW001 BKN002 BKN003 18/18 Q1007 RMK 2ST001 5ST002 7ST003 A2974
RJCC 151300Z 13005KT 2300 BR FEW001 SCT002 BKN003 18/18 Q1007 RMK 1ST001 3ST002 7ST003 A2974
RJCC 151230Z 15008KT 2500 BR FEW001 BKN003 18/18 Q1007 RMK 1ST001 7ST003 A2974
RJCC 151200Z 14006KT 2500 BR FEW001 BKN003 18/18 Q1007 RMK 1ST001 7ST003 A2975
RJCC 151130Z 15007KT 2500 BR FEW001 BKN003 19/18 Q1007 RMK 1ST001 7ST003 A2975
RJCC 151100Z 16009KT 2500 BR FEW001 BKN003 BKN004 19/18 Q1006 RMK 1ST001 5ST003 7ST004 A2973
RJCC 151043Z 17010KT 3100 BR FEW002 SCT003 BKN004 19/18 Q1006 RMK 1ST002 3ST003 6ST004 A2973
RJCC 151030Z 17009KT 4500 BR FEW002 BKN004 BKN005 19/18 Q1006 RMK 1ST002 5ST004 7ST005 A2972
RJCC 151015Z 17010KT 6000 FEW003 BKN005 BKN007 19/18 Q1006 RMK 1ST003 5ST005 7ST007 A2971
RJCC 151000Z 17010KT 6000 FEW003 SCT005 BKN007 19/19 Q1006 RMK 1ST003 4ST005 7ST007 A2971